Time;durP1;ratioP1;P1;durP2;ratioP2;P2;SDS_P1;SDS_P2;PMS_P1;PMS_P2;Temp;Humidity;BMP_temperature;BMP_pressure;BME280_temperature;BME280_humidity;BME280_pressure;Samples;Min_cycle;Max_cycle;Signal;HPM_P1;HPM_P2
2022/07/21 00:00:11;;;;;;;5.88;3.22;;;21.40;99.90;;;;;;5125626;27;20573;-74
2022/07/21 00:02:37;;;;;;;5.28;3.22;;;21.40;99.90;;;;;;5128022;27;20093;-74
2022/07/21 00:05:02;;;;;;;5.82;3.53;;;21.40;99.90;;;;;;5126380;27;20089;-74
2022/07/21 00:07:28;;;;;;;8.38;3.92;;;21.40;99.90;;;;;;5127005;27;21422;-74
2022/07/21 00:09:55;;;;;;;9.48;3.85;;;21.40;99.90;;;;;;5124251;27;20047;-74
2022/07/21 00:12:21;;;;;;;7.05;4.03;;;21.40;99.90;;;;;;5127044;27;20096;-74
2022/07/21 00:14:46;;;;;;;7.22;4.07;;;21.30;99.90;;;;;;5126476;27;20046;-74
2022/07/21 00:17:12;;;;;;;5.57;3.67;;;21.30;99.90;;;;;;5125364;27;20748;-74
2022/07/21 00:19:38;;;;;;;5.90;4.65;;;21.20;99.90;;;;;;5127742;27;20066;-74
2022/07/21 00:22:03;;;;;;;5.72;4.78;;;21.20;99.90;;;;;;5125476;27;20097;-74
2022/07/21 00:24:29;;;;;;;8.80;5.38;;;21.20;99.90;;;;;;5126938;27;20051;-74
2022/07/21 00:26:55;;;;;;;13.00;4.85;;;21.10;99.90;;;;;;5127193;27;20104;-74
2022/07/21 00:29:21;;;;;;;8.05;5.57;;;21.10;99.90;;;;;;5126731;27;20044;-74
2022/07/21 00:31:46;;;;;;;6.57;4.47;;;21.00;99.90;;;;;;5125115;27;20134;-74
2022/07/21 00:34:12;;;;;;;9.00;5.78;;;21.00;99.90;;;;;;5128685;27;20517;-74
2022/07/21 00:36:38;;;;;;;5.82;5.00;;;21.00;99.90;;;;;;5127077;27;20058;-74
2022/07/21 00:39:03;;;;;;;12.80;6.00;;;21.00;99.90;;;;;;5126756;27;20050;-74
2022/07/21 00:41:29;;;;;;;8.43;4.60;;;20.90;99.90;;;;;;5127344;27;20147;-74
2022/07/21 00:43:55;;;;;;;8.55;6.00;;;20.90;99.90;;;;;;5126111;27;20050;-74
2022/07/21 00:46:21;;;;;;;8.20;5.72;;;20.90;99.90;;;;;;5121252;27;20044;-75
2022/07/21 00:48:47;;;;;;;9.90;5.05;;;20.90;99.90;;;;;;5125976;27;20032;-74
2022/07/21 00:51:13;;;;;;;7.65;5.53;;;20.90;99.90;;;;;;5127161;27;20043;-74
2022/07/21 00:53:38;;;;;;;11.13;5.80;;;20.90;99.90;;;;;;5126201;27;20043;-74
2022/07/21 00:56:05;;;;;;;9.85;5.60;;;20.90;99.90;;;;;;5127975;27;20805;-74
2022/07/21 00:58:31;;;;;;;11.10;6.45;;;20.90;99.90;;;;;;5124953;27;20666;-74
2022/07/21 01:00:57;;;;;;;8.63;5.53;;;20.90;99.90;;;;;;5124485;27;20035;-74
2022/07/21 01:03:23;;;;;;;7.93;5.88;;;20.90;99.90;;;;;;5126637;27;20082;-74
2022/07/21 01:05:49;;;;;;;10.48;6.65;;;20.80;99.90;;;;;;5108871;27;20592;-74
2022/07/21 01:08:15;;;;;;;6.95;5.28;;;20.80;99.90;;;;;;5127171;27;20051;-74
2022/07/21 01:10:40;;;;;;;10.90;6.88;;;20.90;99.90;;;;;;5124144;27;20567;-74
2022/07/21 01:13:07;;;;;;;12.95;6.15;;;20.80;99.90;;;;;;5127043;27;20044;-74
2022/07/21 01:15:32;;;;;;;9.25;6.97;;;20.80;99.90;;;;;;5125750;27;20043;-74
2022/07/21 01:17:58;;;;;;;16.75;6.93;;;20.80;99.90;;;;;;5126069;27;20509;-74
2022/07/21 01:20:26;;;;;;;21.52;7.47;;;20.80;99.90;;;;;;5127350;27;20116;-74
2022/07/21 01:22:58;;;;;;;12.32;7.45;;;20.80;99.90;;;;;;5124257;27;20044;-74
2022/07/21 01:25:23;;;;;;;13.93;7.10;;;20.70;99.90;;;;;;5125020;27;20040;-74
2022/07/21 01:27:49;;;;;;;14.55;9.57;;;20.70;99.90;;;;;;5125186;27;20890;-74
2022/07/21 01:30:16;;;;;;;11.52;8.07;;;20.70;99.90;;;;;;5108660;27;20048;-74
2022/07/21 01:32:42;;;;;;;12.88;7.55;;;20.70;99.90;;;;;;5125529;27;20125;-74
2022/07/21 01:35:11;;;;;;;11.13;7.70;;;20.60;99.90;;;;;;5125795;27;20043;-74
2022/07/21 01:37:39;;;;;;;12.65;9.25;;;20.60;99.90;;;;;;5127809;27;20126;-74
2022/07/21 01:42:52;;;;;;;15.40;10.35;;;20.60;99.90;;;;;;5125819;27;20043;-74
2022/07/21 01:45:18;;;;;;;13.38;8.63;;;20.60;99.90;;;;;;5125414;27;20063;-74
2022/07/21 01:47:44;;;;;;;14.77;8.75;;;20.60;99.90;;;;;;5122727;27;20080;-74
2022/07/21 01:50:10;;;;;;;12.85;8.30;;;20.60;99.90;;;;;;5141293;27;20046;-74
2022/07/21 01:52:36;;;;;;;14.30;9.57;;;20.60;99.90;;;;;;5124313;27;20144;-74
2022/07/21 01:55:02;;;;;;;18.35;10.15;;;20.60;99.90;;;;;;5124374;27;20483;-74
2022/07/21 01:57:28;;;;;;;15.07;9.15;;;20.60;99.90;;;;;;5126122;27;20039;-74
2022/07/21 01:59:54;;;;;;;13.73;10.05;;;20.50;99.90;;;;;;5123803;27;20039;-74
2022/07/21 02:02:21;;;;;;;12.75;9.45;;;20.60;99.90;;;;;;5125415;27;20888;-74
2022/07/21 02:04:48;;;;;;;15.40;9.77;;;20.60;99.90;;;;;;5125279;27;20059;-74
2022/07/21 02:07:14;;;;;;;14.30;9.32;;;20.60;99.90;;;;;;5125023;27;20089;-74
2022/07/21 02:09:41;;;;;;;17.08;9.68;;;20.60;99.90;;;;;;5125450;27;20145;-74
2022/07/21 02:12:07;;;;;;;12.00;8.45;;;20.70;99.90;;;;;;5123838;27;20051;-74
2022/07/21 02:14:32;;;;;;;12.98;9.07;;;20.70;99.90;;;;;;5125459;27;20059;-74
2022/07/21 02:16:58;;;;;;;15.68;9.75;;;20.70;99.90;;;;;;5123614;27;20039;-74
2022/07/21 02:19:24;;;;;;;13.40;9.48;;;20.70;99.90;;;;;;5122673;27;20449;-74
2022/07/21 02:21:50;;;;;;;12.57;9.60;;;20.60;99.90;;;;;;5125144;27;20043;-74
2022/07/21 02:24:15;;;;;;;12.63;9.23;;;20.60;99.90;;;;;;5123724;27;20623;-74
2022/07/21 02:26:41;;;;;;;15.05;9.82;;;20.60;99.90;;;;;;5125840;27;20035;-74
2022/07/21 02:29:07;;;;;;;11.38;8.98;;;20.60;99.90;;;;;;5125554;27;20482;-74
2022/07/21 02:31:33;;;;;;;15.07;8.60;;;20.60;99.90;;;;;;5124625;27;20043;-74
2022/07/21 02:33:59;;;;;;;12.90;9.98;;;20.60;99.90;;;;;;5123746;27;21287;-74
2022/07/21 02:36:25;;;;;;;14.85;10.40;;;20.60;99.90;;;;;;5124174;27;20133;-73
2022/07/21 02:38:50;;;;;;;11.77;8.98;;;20.50;99.90;;;;;;5108287;27;20044;-74
2022/07/21 02:41:16;;;;;;;19.50;9.85;;;20.50;99.90;;;;;;5125407;27;20469;-74
2022/07/21 02:43:42;;;;;;;12.30;8.65;;;20.50;99.90;;;;;;5124963;27;20505;-74
2022/07/21 02:46:08;;;;;;;18.70;11.18;;;20.40;99.90;;;;;;5126434;27;20508;-74
2022/07/21 02:48:34;;;;;;;13.07;9.65;;;20.50;99.90;;;;;;5124876;27;20112;-74
2022/07/21 02:51:00;;;;;;;12.80;8.60;;;20.40;99.90;;;;;;5124503;27;20521;-74
2022/07/21 02:53:26;;;;;;;13.40;9.27;;;20.40;99.90;;;;;;5122402;27;20071;-74
2022/07/21 02:55:52;;;;;;;15.45;8.80;;;20.30;99.90;;;;;;5124789;27;20036;-74
2022/07/21 02:58:19;;;;;;;14.02;10.15;;;20.30;99.90;;;;;;5124615;27;20541;-74
2022/07/21 03:01:02;;;;;;;16.13;10.15;;;20.30;99.90;;;;;;5125110;27;20079;-74
2022/07/21 03:03:35;;;;;;;14.55;9.30;;;20.30;99.90;;;;;;5125486;27;20047;-74
2022/07/21 03:06:01;;;;;;;19.70;9.80;;;20.20;99.90;;;;;;5125275;27;20508;-74
2022/07/21 03:08:28;;;;;;;14.05;9.50;;;20.20;99.90;;;;;;5123915;27;20078;-74
2022/07/21 03:10:54;;;;;;;11.15;8.02;;;20.20;99.90;;;;;;5126371;27;20044;-74
2022/07/21 03:13:21;;;;;;;14.55;9.65;;;20.10;99.90;;;;;;5128996;27;20093;-74
2022/07/21 03:15:48;;;;;;;12.85;8.85;;;20.10;99.90;;;;;;5126576;27;20039;-74
2022/07/21 03:18:14;;;;;;;13.75;8.57;;;20.10;99.90;;;;;;5128563;27;20047;-74
2022/07/21 03:20:41;;;;;;;13.25;8.73;;;20.10;99.90;;;;;;5127787;27;20126;-74
2022/07/21 03:23:07;;;;;;;14.80;9.30;;;20.10;99.90;;;;;;5129380;27;20039;-73
2022/07/21 03:25:33;;;;;;;16.13;10.68;;;20.10;99.90;;;;;;5127067;27;20453;-74
2022/07/21 03:27:59;;;;;;;15.07;9.02;;;20.10;99.90;;;;;;5124921;27;20083;-74
2022/07/21 03:30:26;;;;;;;14.75;10.65;;;20.00;99.90;;;;;;5127411;27;20035;-74
2022/07/21 03:32:52;;;;;;;16.02;11.48;;;20.00;99.90;;;;;;5127442;27;20047;-74
2022/07/21 03:35:18;;;;;;;16.17;9.82;;;20.00;99.90;;;;;;5128924;27;20057;-74
2022/07/21 03:37:48;;;;;;;15.45;10.45;;;20.00;99.90;;;;;;5126527;27;20426;-73
2022/07/21 03:40:17;;;;;;;13.43;9.30;;;20.00;99.90;;;;;;5129017;27;20036;-74
2022/07/21 03:42:43;;;;;;;16.77;9.85;;;20.10;99.90;;;;;;5129307;27;20043;-74
2022/07/21 03:45:10;;;;;;;14.48;9.23;;;20.10;99.90;;;;;;5127260;27;20655;-73
2022/07/21 03:47:36;;;;;;;15.65;10.57;;;20.00;99.90;;;;;;5129011;27;20047;-74
2022/07/21 03:50:03;;;;;;;13.77;9.50;;;20.10;99.90;;;;;;5125080;27;20047;-74
2022/07/21 03:52:29;;;;;;;18.02;10.50;;;20.00;99.90;;;;;;5126760;27;20043;-74
2022/07/21 03:55:07;;;;;;;17.30;10.55;;;20.00;99.90;;;;;;5126809;27;20580;-73
2022/07/21 03:57:46;;;;;;;15.60;10.75;;;20.10;99.90;;;;;;5128803;27;20050;-74
2022/07/21 04:00:27;;;;;;;14.30;10.23;;;20.10;99.90;;;;;;5125361;27;20043;-74
2022/07/21 04:02:53;;;;;;;13.63;10.27;;;20.20;99.90;;;;;;5127719;27;20042;-74
2022/07/21 04:05:19;;;;;;;11.77;8.85;;;20.20;99.90;;;;;;5127952;27;20193;-74
2022/07/21 04:07:47;;;;;;;13.65;8.95;;;20.20;99.90;;;;;;5127810;27;20120;-74
2022/07/21 04:10:17;;;;;;;15.32;10.90;;;20.20;99.90;;;;;;5128006;27;20126;-74
2022/07/21 04:12:44;;;;;;;14.55;10.60;;;20.20;99.90;;;;;;5126850;27;20045;-74
2022/07/21 04:15:11;;;;;;;14.73;9.32;;;20.20;99.90;;;;;;5127902;27;20038;-74
2022/07/21 04:17:38;;;;;;;15.43;10.02;;;20.30;99.90;;;;;;5126085;27;20112;-74
2022/07/21 04:20:06;;;;;;;15.30;9.10;;;20.30;99.90;;;;;;5126927;27;20553;-74
2022/07/21 04:22:32;;;;;;;13.68;10.13;;;20.30;99.90;;;;;;5125177;27;20040;-74
2022/07/21 04:24:59;;;;;;;12.68;8.18;;;20.30;99.90;;;;;;5126604;27;20112;-74
2022/07/21 04:27:25;;;;;;;11.45;8.98;;;20.30;99.90;;;;;;5125465;27;20075;-73
2022/07/21 04:29:51;;;;;;;13.77;8.88;;;20.30;99.90;;;;;;5126314;27;20049;-74
2022/07/21 04:32:17;;;;;;;14.73;8.73;;;20.30;99.90;;;;;;5127389;27;20635;-74
2022/07/21 04:34:43;;;;;;;11.90;8.82;;;20.30;99.90;;;;;;5126610;27;20032;-74
2022/07/21 04:37:09;;;;;;;13.50;8.38;;;20.30;99.90;;;;;;5124304;27;20448;-74
2022/07/21 04:39:35;;;;;;;14.07;8.30;;;20.30;99.90;;;;;;5126694;27;20130;-74
2022/07/21 04:42:01;;;;;;;17.23;10.35;;;20.30;99.90;;;;;;5127558;27;20516;-74
2022/07/21 04:44:26;;;;;;;15.45;9.43;;;20.40;99.90;;;;;;5126631;27;20152;-73
2022/07/21 04:46:52;;;;;;;12.80;8.52;;;20.40;99.90;;;;;;5127802;27;20647;-74
2022/07/21 04:49:18;;;;;;;11.85;8.32;;;20.40;99.90;;;;;;5123965;27;20082;-74
2022/07/21 04:51:43;;;;;;;11.75;8.85;;;20.30;99.90;;;;;;5124813;27;20602;-74
2022/07/21 04:54:09;;;;;;;12.70;9.73;;;20.30;99.90;;;;;;5126858;27;20502;-74
2022/07/21 04:56:35;;;;;;;15.13;10.38;;;20.30;99.90;;;;;;5126341;27;20039;-74
2022/07/21 04:59:02;;;;;;;15.13;11.20;;;20.30;99.90;;;;;;5126916;27;20043;-74
2022/07/21 05:01:28;;;;;;;12.85;9.98;;;20.30;99.90;;;;;;5127421;27;20039;-74
2022/07/21 05:03:54;;;;;;;14.10;9.52;;;20.30;99.90;;;;;;5124891;27;20028;-73
2022/07/21 05:06:20;;;;;;;23.10;10.43;;;20.30;99.90;;;;;;5125153;27;20548;-73
2022/07/21 05:08:47;;;;;;;11.93;8.90;;;20.40;99.90;;;;;;5126300;27;20058;-74
2022/07/21 05:11:13;;;;;;;13.52;9.32;;;20.40;99.90;;;;;;5125932;27;20040;-74
2022/07/21 05:13:39;;;;;;;16.58;9.82;;;20.40;99.90;;;;;;5125034;27;20597;-74
2022/07/21 05:16:05;;;;;;;15.15;8.32;;;20.40;99.90;;;;;;5124993;27;20553;-74
2022/07/21 05:18:30;;;;;;;13.77;8.60;;;20.50;99.90;;;;;;5125385;27;20050;-74
2022/07/21 05:20:56;;;;;;;13.52;9.45;;;20.50;99.90;;;;;;5124798;27;20619;-74
2022/07/21 05:23:22;;;;;;;14.98;9.27;;;20.60;99.90;;;;;;5126200;27;20047;-74
2022/07/21 05:25:48;;;;;;;16.33;9.77;;;20.50;99.90;;;;;;5125886;27;20097;-74
2022/07/21 05:28:13;;;;;;;13.10;9.50;;;20.60;99.90;;;;;;5125052;27;20169;-74
2022/07/21 05:30:39;;;;;;;12.48;10.00;;;20.60;99.90;;;;;;5126207;27;20876;-74
2022/07/21 05:33:05;;;;;;;15.20;9.07;;;20.60;99.90;;;;;;5125829;27;20527;-74
2022/07/21 05:35:31;;;;;;;15.00;9.40;;;20.60;99.90;;;;;;5125013;27;20093;-74
2022/07/21 05:37:57;;;;;;;13.25;10.23;;;20.50;99.90;;;;;;5123714;27;20043;-74
2022/07/21 05:40:22;;;;;;;15.55;9.52;;;20.60;99.90;;;;;;5125390;27;20040;-74
2022/07/21 05:42:48;;;;;;;12.60;9.68;;;20.50;99.90;;;;;;5127450;27;20043;-74
2022/07/21 05:45:14;;;;;;;14.32;9.10;;;20.60;99.90;;;;;;5124450;27;20046;-74
2022/07/21 05:47:41;;;;;;;15.23;9.38;;;20.60;99.90;;;;;;5124536;27;20559;-74
2022/07/21 05:50:07;;;;;;;14.23;10.68;;;20.60;99.90;;;;;;5124911;27;20040;-74
2022/07/21 05:52:33;;;;;;;16.13;10.48;;;20.60;99.90;;;;;;5125775;27;20035;-74
2022/07/21 05:54:59;;;;;;;14.73;9.93;;;20.60;99.90;;;;;;5126366;27;20044;-74
2022/07/21 05:57:24;;;;;;;14.95;10.07;;;20.70;99.90;;;;;;5126908;27;20048;-74
2022/07/21 05:59:50;;;;;;;21.92;9.88;;;20.70;99.90;;;;;;5109788;27;21205;-74
2022/07/21 06:02:16;;;;;;;14.65;10.02;;;20.70;99.90;;;;;;5124301;27;20067;-74
2022/07/21 06:04:42;;;;;;;21.00;10.45;;;20.60;99.90;;;;;;5124386;27;20509;-74
2022/07/21 06:07:07;;;;;;;14.93;9.38;;;20.60;99.90;;;;;;5122242;27;20043;-74
2022/07/21 06:09:33;;;;;;;13.60;9.70;;;20.60;99.90;;;;;;5125346;27;20568;-74
2022/07/21 06:11:59;;;;;;;15.40;9.25;;;20.50;99.90;;;;;;5109411;27;20035;-74
2022/07/21 06:14:25;;;;;;;14.95;9.23;;;20.50;99.90;;;;;;5125356;27;20071;-74
2022/07/21 06:16:51;;;;;;;11.15;8.30;;;20.50;99.90;;;;;;5125777;27;20069;-74
2022/07/21 06:19:18;;;;;;;12.23;9.98;;;20.50;99.90;;;;;;5124652;27;20583;-74
2022/07/21 06:21:44;;;;;;;14.63;9.57;;;20.50;99.90;;;;;;5123604;27;20043;-74
2022/07/21 06:24:10;;;;;;;16.50;9.00;;;20.50;99.90;;;;;;5121050;27;20039;-74
2022/07/21 06:26:36;;;;;;;14.75;9.45;;;20.50;99.90;;;;;;5126377;27;20225;-73
2022/07/21 06:29:02;;;;;;;13.55;9.65;;;20.60;99.90;;;;;;5121868;27;21024;-73
2022/07/21 06:31:27;;;;;;;15.13;8.90;;;20.60;99.90;;;;;;5122517;27;20090;-73
2022/07/21 06:33:53;;;;;;;10.88;8.75;;;20.80;99.90;;;;;;5122423;27;20036;-73
2022/07/21 06:36:19;;;;;;;13.75;8.60;;;20.80;99.90;;;;;;5123582;27;20347;-73
2022/07/21 06:38:45;;;;;;;14.38;8.30;;;20.90;99.90;;;;;;5106618;27;20125;-74
2022/07/21 06:41:11;;;;;;;13.52;9.48;;;21.00;99.90;;;;;;5121798;27;20036;-74
2022/07/21 06:43:37;;;;;;;11.52;8.48;;;21.00;99.90;;;;;;5123687;27;20040;-73
2022/07/21 06:46:03;;;;;;;14.27;8.18;;;21.10;99.90;;;;;;5128197;27;20044;-73
2022/07/21 06:48:29;;;;;;;14.38;8.10;;;21.10;99.90;;;;;;5126541;27;20039;-74
2022/07/21 06:50:57;;;;;;;12.40;8.73;;;21.20;99.90;;;;;;5128143;27;20039;-73
2022/07/21 06:53:24;;;;;;;13.60;9.48;;;21.30;99.90;;;;;;5127266;27;20112;-74
2022/07/21 06:55:54;;;;;;;12.30;8.25;;;21.20;99.90;;;;;;5129232;27;20097;-73
2022/07/21 06:58:24;;;;;;;15.77;10.07;;;21.20;99.90;;;;;;5127330;27;20440;-74
2022/07/21 07:00:51;;;;;;;14.85;9.35;;;21.20;99.90;;;;;;5128247;27;20040;-74
2022/07/21 07:03:18;;;;;;;18.33;10.15;;;21.20;99.90;;;;;;5126845;27;20044;-73
2022/07/21 07:05:45;;;;;;;17.83;9.15;;;21.20;99.90;;;;;;5125600;27;20036;-73
2022/07/21 07:08:12;;;;;;;12.00;8.43;;;21.10;99.90;;;;;;5128387;27;20086;-73
2022/07/21 07:10:38;;;;;;;16.17;8.77;;;21.10;99.90;;;;;;5127824;27;20169;-73
2022/07/21 07:13:04;;;;;;;10.68;7.95;;;21.10;99.90;;;;;;5128614;27;20040;-73
2022/07/21 07:15:29;;;;;;;13.30;7.22;;;21.10;99.90;;;;;;5128010;27;20043;-73
2022/07/21 07:17:56;;;;;;;10.98;7.68;;;21.10;99.90;;;;;;5127430;27;20039;-74
2022/07/21 07:20:22;;;;;;;12.15;8.57;;;21.10;99.90;;;;;;5128301;27;20404;-73
2022/07/21 07:22:48;;;;;;;12.73;7.40;;;21.20;99.90;;;;;;5125488;27;20043;-74
2022/07/21 07:25:17;;;;;;;22.20;7.78;;;21.30;99.90;;;;;;5128425;27;20051;-73
2022/07/21 07:27:48;;;;;;;14.10;7.88;;;21.40;99.90;;;;;;5126078;27;20144;-73
2022/07/21 07:30:15;;;;;;;14.27;8.50;;;21.40;99.90;;;;;;5127676;27;20047;-73
2022/07/21 07:32:41;;;;;;;14.80;8.45;;;21.40;99.90;;;;;;5128096;27;20118;-74
2022/07/21 07:35:09;;;;;;;15.80;9.27;;;21.40;99.90;;;;;;5126798;27;20114;-74
2022/07/21 07:37:39;;;;;;;15.70;7.15;;;21.50;99.90;;;;;;5126404;27;20044;-74
2022/07/21 07:40:08;;;;;;;14.45;7.95;;;21.60;99.90;;;;;;5125086;27;20078;-73
2022/07/21 07:42:35;;;;;;;13.82;8.10;;;21.50;99.90;;;;;;5127947;27;20119;-74
2022/07/21 07:45:01;;;;;;;14.73;7.65;;;21.60;99.90;;;;;;5124860;27;20071;-73
2022/07/21 07:47:27;;;;;;;13.35;7.93;;;21.70;99.90;;;;;;5126105;27;20040;-74
2022/07/21 07:49:53;;;;;;;13.23;7.65;;;21.70;99.90;;;;;;5125399;27;20116;-73
2022/07/21 07:52:22;;;;;;;18.85;8.43;;;21.80;99.90;;;;;;5128103;27;20048;-73
2022/07/21 07:54:47;;;;;;;14.07;8.85;;;21.70;99.90;;;;;;5129194;27;20169;-73
2022/07/21 07:57:13;;;;;;;13.73;8.40;;;21.70;99.90;;;;;;5125231;27;20047;-73
2022/07/21 07:59:39;;;;;;;11.70;7.80;;;21.50;99.90;;;;;;5127817;27;20035;-74
2022/07/21 08:02:05;;;;;;;13.30;8.68;;;21.50;99.90;;;;;;5125157;27;20036;-73
2022/07/21 08:04:31;;;;;;;15.18;9.77;;;21.60;99.90;;;;;;5127055;27;20051;-73
2022/07/21 08:06:57;;;;;;;12.18;8.77;;;21.70;99.90;;;;;;5126248;27;20049;-74
2022/07/21 08:09:22;;;;;;;14.18;7.47;;;21.60;99.90;;;;;;5125720;27;20533;-73
2022/07/21 08:11:50;;;;;;;9.85;7.40;;;21.60;99.90;;;;;;5124453;27;20366;-73
2022/07/21 08:14:16;;;;;;;12.73;7.47;;;21.60;99.90;;;;;;5126373;27;20039;-73
2022/07/21 08:16:42;;;;;;;12.57;7.47;;;21.60;99.90;;;;;;5124867;27;20673;-73
2022/07/21 08:19:08;;;;;;;15.02;8.00;;;21.70;99.90;;;;;;5108032;27;20039;-73
2022/07/21 08:21:34;;;;;;;11.23;7.82;;;21.70;99.90;;;;;;5109916;27;20565;-73
2022/07/21 08:24:01;;;;;;;14.32;8.15;;;21.90;99.90;;;;;;5125391;27;20106;-73
2022/07/21 08:26:27;;;;;;;10.23;8.05;;;22.10;99.90;;;;;;5126107;27;20109;-73
2022/07/21 08:28:54;;;;;;;12.65;7.30;;;22.30;99.90;;;;;;5126037;27;20073;-74
2022/07/21 08:31:21;;;;;;;10.32;7.25;;;22.40;99.90;;;;;;5126032;27;20542;-74
2022/07/21 08:33:47;;;;;;;14.80;8.52;;;22.40;99.90;;;;;;5125573;27;20092;-73
2022/07/21 08:36:12;;;;;;;11.45;7.57;;;22.30;99.90;;;;;;5124975;27;20039;-73
2022/07/21 08:38:38;;;;;;;9.40;6.78;;;22.10;99.90;;;;;;5125878;27;20046;-73
2022/07/21 08:41:04;;;;;;;11.18;6.82;;;22.00;99.90;;;;;;5127848;27;20558;-73
2022/07/21 08:43:30;;;;;;;10.13;7.40;;;21.90;99.90;;;;;;5122576;27;20055;-74
2022/07/21 08:45:56;;;;;;;12.63;7.25;;;21.90;99.90;;;;;;5124825;27;20111;-73
2022/07/21 08:48:26;;;;;;;14.10;7.53;;;21.90;99.90;;;;;;5125093;27;20040;-73
2022/07/21 08:50:52;;;;;;;13.40;7.82;;;21.90;99.90;;;;;;5124980;27;20063;-73
2022/07/21 08:53:18;;;;;;;11.30;7.57;;;21.90;99.90;;;;;;5124797;27;20047;-73
2022/07/21 08:55:44;;;;;;;11.02;7.72;;;21.90;99.90;;;;;;5125035;27;20579;-73
2022/07/21 08:58:12;;;;;;;12.85;7.03;;;21.90;99.90;;;;;;5125697;27;20046;-73
2022/07/21 09:00:40;;;;;;;12.48;7.55;;;21.90;99.90;;;;;;5124523;27;20527;-73
2022/07/21 09:03:16;;;;;;;10.45;7.22;;;22.00;99.90;;;;;;5122861;27;20048;-73
2022/07/21 09:06:13;;;;;;;13.10;8.18;;;22.00;99.90;;;;;;5125806;27;20044;-73
2022/07/21 09:08:47;;;;;;;13.40;7.10;;;22.00;99.90;;;;;;5117972;27;20436;-74
2022/07/21 09:11:22;;;;;;;10.77;6.82;;;22.00;99.90;;;;;;5108401;27;20070;-73
2022/07/21 09:14:04;;;;;;;13.82;6.95;;;22.10;99.90;;;;;;5125404;27;20043;-74
2022/07/21 09:16:35;;;;;;;10.38;7.28;;;22.20;99.90;;;;;;5124396;27;20105;-73
2022/07/21 09:19:01;;;;;;;10.48;6.30;;;22.20;99.90;;;;;;5122292;27;20032;-77
2022/07/21 09:21:28;;;;;;;10.02;6.55;;;22.20;99.90;;;;;;5123933;27;20039;-77
2022/07/21 09:24:11;;;;;;;10.85;5.32;;;22.20;99.90;;;;;;5124180;27;20526;-77
2022/07/21 09:27:01;;;;;;;9.48;5.95;;;22.20;99.90;;;;;;5126942;27;20118;-77
2022/07/21 09:29:35;;;;;;;11.00;6.25;;;22.10;99.90;;;;;;5123345;27;20172;-77
2022/07/21 09:32:23;;;;;;;11.02;5.28;;;22.10;99.90;;;;;;5126180;27;20398;-77
2022/07/21 09:34:59;;;;;;;9.30;5.30;;;22.10;99.90;;;;;;5123321;27;20035;-77
2022/07/21 09:37:24;;;;;;;9.45;5.95;;;22.10;99.90;;;;;;5124128;27;20523;-77
2022/07/21 09:39:57;;;;;;;8.30;5.70;;;22.10;99.90;;;;;;5124440;27;20097;-77
2022/07/21 09:42:26;;;;;;;9.18;5.90;;;22.10;99.90;;;;;;5123677;27;20051;-81
2022/07/21 09:44:55;;;;;;;10.48;6.03;;;22.10;99.90;;;;;;5106886;27;20621;-77
2022/07/21 09:47:22;;;;;;;8.18;5.13;;;22.10;99.90;;;;;;5123433;27;20047;-73
2022/07/21 09:49:48;;;;;;;11.05;5.53;;;22.20;99.90;;;;;;5126533;27;20047;-73
2022/07/21 09:52:38;;;;;;;10.25;5.40;;;22.20;99.90;;;;;;5122306;27;20635;-73
2022/07/21 09:55:07;;;;;;;9.45;5.35;;;22.30;99.90;;;;;;5118753;27;20052;-73
2022/07/21 09:57:33;;;;;;;9.35;6.38;;;22.30;99.90;;;;;;5124915;27;20201;-73
2022/07/21 10:00:03;;;;;;;8.40;5.93;;;22.30;99.90;;;;;;5125795;27;20116;-73
2022/07/21 10:02:31;;;;;;;9.30;5.97;;;22.40;99.90;;;;;;5124946;27;20509;-73
2022/07/21 10:05:07;;;;;;;8.80;5.82;;;22.50;99.90;;;;;;5108839;27;20203;-73
2022/07/21 10:07:36;;;;;;;7.32;5.18;;;22.40;99.90;;;;;;5124611;27;20044;-73
2022/07/21 10:10:03;;;;;;;10.15;6.30;;;22.40;99.90;;;;;;5123011;27;20961;-73
2022/07/21 10:12:29;;;;;;;7.47;4.82;;;22.50;99.90;;;;;;5124060;27;20047;-73
2022/07/21 10:14:55;;;;;;;8.57;6.03;;;22.60;99.90;;;;;;5124666;27;20047;-73
2022/07/21 10:17:23;;;;;;;9.23;5.50;;;22.70;99.90;;;;;;5125227;27;20137;-73
2022/07/21 10:20:09;;;;;;;8.48;5.57;;;22.80;99.90;;;;;;5123811;27;20039;-73
2022/07/21 10:23:09;;;;;;;9.07;5.07;;;22.80;99.90;;;;;;5126003;27;20088;-73
2022/07/21 10:25:36;;;;;;;8.30;5.75;;;22.70;99.90;;;;;;5124919;27;20090;-73
2022/07/21 10:28:23;;;;;;;10.38;5.75;;;22.60;99.90;;;;;;5124577;27;20050;-73
2022/07/21 10:30:54;;;;;;;8.63;5.32;;;22.70;99.90;;;;;;5122602;27;20495;-73
2022/07/21 10:33:40;;;;;;;8.60;5.80;;;22.70;99.90;;;;;;5124667;27;20133;-73
2022/07/21 10:36:06;;;;;;;7.43;5.05;;;22.80;99.90;;;;;;5124069;27;20043;-73
2022/07/21 10:38:34;;;;;;;7.95;5.00;;;22.80;99.90;;;;;;5125117;27;20035;-73
2022/07/21 10:41:02;;;;;;;5.88;4.60;;;22.80;99.90;;;;;;5125088;27;20039;-73
2022/07/21 10:43:28;;;;;;;7.50;4.97;;;22.90;99.90;;;;;;5123549;27;20528;-72
2022/07/21 10:45:55;;;;;;;7.10;5.32;;;22.90;99.90;;;;;;5126121;27;20054;-73
2022/07/21 10:48:42;;;;;;;10.52;4.72;;;23.00;99.90;;;;;;5122467;27;20039;-73
2022/07/21 10:51:14;;;;;;;7.57;5.38;;;23.00;99.90;;;;;;5124317;27;20092;-72
2022/07/21 10:53:40;;;;;;;7.80;4.78;;;22.90;99.90;;;;;;5125179;27;20039;-73
2022/07/21 10:56:07;;;;;;;6.75;4.75;;;22.80;99.90;;;;;;5126168;27;20747;-73
2022/07/21 10:58:34;;;;;;;8.10;5.35;;;22.80;99.90;;;;;;5123384;27;20117;-73
2022/07/21 11:01:05;;;;;;;6.35;4.70;;;22.80;99.90;;;;;;5123599;27;20142;-73
2022/07/21 11:03:39;;;;;;;10.32;5.50;;;22.80;99.90;;;;;;5124028;27;20043;-73
2022/07/21 11:06:19;;;;;;;7.47;5.05;;;22.80;99.90;;;;;;5123261;27;20694;-73
2022/07/21 11:08:49;;;;;;;8.20;5.32;;;23.00;99.90;;;;;;5121600;27;20545;-73
2022/07/21 11:11:22;;;;;;;7.20;4.30;;;23.00;99.90;;;;;;5122895;27;20047;-73
2022/07/21 11:13:59;;;;;;;6.63;4.75;;;23.10;99.90;;;;;;5122702;27;20185;-73
2022/07/21 11:17:16;;;;;;;6.07;4.63;;;23.10;99.90;;;;;;5125068;27;20043;-73
2022/07/21 11:19:37;;;;;;;5.75;4.70;;;23.20;99.90;;;;;;5121745;27;20096;-73
2022/07/21 11:22:23;;;;;;;6.15;4.90;;;23.30;99.90;;;;;;5125458;27;20067;-73
2022/07/21 11:24:52;;;;;;;8.45;4.90;;;23.30;99.90;;;;;;5123944;27;20070;-73
2022/07/21 11:27:20;;;;;;;7.18;5.18;;;23.30;99.90;;;;;;5121969;27;20047;-73
2022/07/21 11:29:47;;;;;;;8.45;5.03;;;23.30;99.90;;;;;;5124302;27;20124;-73
2022/07/21 11:32:14;;;;;;;7.65;4.78;;;23.30;99.90;;;;;;5124804;27;20113;-73
2022/07/21 11:34:45;;;;;;;5.85;4.22;;;23.30;99.90;;;;;;5128180;27;20042;-74
2022/07/21 11:37:14;;;;;;;6.60;4.10;;;23.40;99.90;;;;;;5127072;27;20535;-73
2022/07/21 11:39:40;;;;;;;7.10;4.93;;;23.60;99.90;;;;;;5126694;27;20670;-73
2022/07/21 11:42:09;;;;;;;5.85;4.25;;;23.60;99.90;;;;;;5128814;27;20064;-73
2022/07/21 11:44:35;;;;;;;8.27;4.35;;;23.60;99.90;;;;;;5125887;27;20490;-73
2022/07/21 11:47:03;;;;;;;6.65;4.80;;;23.70;99.90;;;;;;5128979;27;20101;-73
2022/07/21 11:49:31;;;;;;;7.63;4.35;;;23.70;99.90;;;;;;5127927;27;20070;-73
2022/07/21 11:52:02;;;;;;;5.55;4.22;;;23.70;99.90;;;;;;5126397;27;20041;-73
2022/07/21 11:54:43;;;;;;;8.05;4.60;;;23.60;99.90;;;;;;5129138;27;20044;-73
2022/07/21 11:57:09;;;;;;;7.03;4.23;;;23.60;99.90;;;;;;5127487;27;20050;-73
2022/07/21 11:59:37;;;;;;;6.60;4.55;;;23.60;99.90;;;;;;5128443;27;20039;-73
2022/07/21 12:02:13;;;;;;;6.68;4.93;;;23.80;99.90;;;;;;5126276;27;20078;-73
2022/07/21 12:04:45;;;;;;;8.35;4.97;;;24.10;99.90;;;;;;5126932;27;20039;-73
2022/07/21 12:07:33;;;;;;;5.90;3.70;;;24.20;99.90;;;;;;5126634;27;20035;-73
2022/07/21 12:10:16;;;;;;;8.30;3.70;;;24.30;99.90;;;;;;5127470;27;20051;-73
2022/07/21 12:12:44;;;;;;;7.97;4.28;;;24.30;99.90;;;;;;5125213;27;20078;-73
2022/07/21 12:15:10;;;;;;;8.82;4.70;;;24.20;99.90;;;;;;5109302;27;20036;-73
2022/07/21 12:17:49;;;;;;;5.50;4.25;;;24.20;99.90;;;;;;5124135;27;20043;-73
2022/07/21 12:20:23;;;;;;;5.68;4.03;;;24.10;99.90;;;;;;5127015;27;20435;-73
2022/07/21 12:22:49;;;;;;;13.27;5.35;;;24.00;99.90;;;;;;5109013;27;20077;-73
2022/07/21 12:25:17;;;;;;;7.38;4.15;;;24.10;99.90;;;;;;5126695;27;20070;-73
2022/07/21 12:27:45;;;;;;;7.15;4.13;;;24.20;99.90;;;;;;5125650;27;20537;-73
2022/07/21 12:30:39;;;;;;;5.32;4.07;;;24.20;99.90;;;;;;5124984;27;20042;-73
2022/07/21 12:33:16;;;;;;;4.22;3.50;;;24.40;99.90;;;;;;5126909;27;20110;-73
2022/07/21 12:35:44;;;;;;;5.43;4.28;;;24.60;99.90;;;;;;5126980;27;20973;-73
2022/07/21 12:38:12;;;;;;;5.90;4.30;;;24.60;99.90;;;;;;5125848;27;20040;-73
2022/07/21 12:40:44;;;;;;;4.70;3.78;;;24.60;99.90;;;;;;5126044;27;20151;-74
2022/07/21 12:43:18;;;;;;;;;;;24.50;99.90;;;;;;5126575;27;20122;-73
2022/07/21 12:46:19;;;;;;;5.15;3.70;;;24.40;99.90;;;;;;5126890;27;19920;-73